CheckWX is a tool to help pilots better visualize weather data.  It is not intended as a substitute for an official pre-flight weather briefing.

02:30:00 UTC

KGCK TAF
Garden City Regional Airport
Garden City, Kansas, USA
KGCK 070520Z 0706/0806 15008KT P6SM SKC FM071800 16012KT P6SM SKC

Jul-7@
06:00 UTC

Jul-7 @ 06:00 UTC

Jul-7@
18:00 UTC

Jul-7 @ 18:00 UTC

TAF KGCK 070520Z 0706/0806 15008KT P6SM SKC

Expired

Wind
  • 150° at 8 KTS
Cloud Levels
  • Clear skies

Jul-7@
18:00 UTC

Jul-7 @ 18:00 UTC

Jul-8@
06:00 UTC

Jul-8 @ 06:00 UTC

FM071800 16012KT P6SM SKC

From

From Standard forecast or significant change

Wind
  • 160° at 12 KTS
Cloud Levels
  • Clear skies